sensor_id;sensor_type;location;lat;lon;timestamp;P1;durP1;ratioP1;P2;durP2;ratioP2
13816;SDS011;6979;52.116;5.286;2024-03-06T00:00:13;19.03;;;17.37;;
13816;SDS011;6979;52.116;5.286;2024-03-06T00:02:41;20.00;;;18.10;;
13816;SDS011;6979;52.116;5.286;2024-03-06T00:05:08;17.03;;;15.53;;
13816;SDS011;6979;52.116;5.286;2024-03-06T00:07:35;18.80;;;17.03;;
13816;SDS011;6979;52.116;5.286;2024-03-06T00:10:07;19.07;;;17.43;;
13816;SDS011;6979;52.116;5.286;2024-03-06T00:12:35;19.83;;;17.87;;
13816;SDS011;6979;52.116;5.286;2024-03-06T00:15:04;20.50;;;18.70;;
13816;SDS011;6979;52.116;5.286;2024-03-06T00:17:33;19.17;;;17.17;;
13816;SDS011;6979;52.116;5.286;2024-03-06T00:20:03;18.73;;;17.10;;
13816;SDS011;6979;52.116;5.286;2024-03-06T00:22:31;19.47;;;17.77;;
13816;SDS011;6979;52.116;5.286;2024-03-06T00:24:58;17.37;;;15.77;;
13816;SDS011;6979;52.116;5.286;2024-03-06T00:27:25;19.33;;;17.53;;
13816;SDS011;6979;52.116;5.286;2024-03-06T00:29:53;17.50;;;15.90;;
13816;SDS011;6979;52.116;5.286;2024-03-06T00:32:20;19.50;;;17.70;;
13816;SDS011;6979;52.116;5.286;2024-03-06T00:34:50;17.83;;;16.23;;
13816;SDS011;6979;52.116;5.286;2024-03-06T00:37:17;19.43;;;17.73;;
13816;SDS011;6979;52.116;5.286;2024-03-06T00:39:44;17.63;;;15.83;;
13816;SDS011;6979;52.116;5.286;2024-03-06T00:42:11;17.17;;;15.57;;
13816;SDS011;6979;52.116;5.286;2024-03-06T00:44:39;17.90;;;16.40;;
13816;SDS011;6979;52.116;5.286;2024-03-06T00:47:07;18.00;;;16.37;;
13816;SDS011;6979;52.116;5.286;2024-03-06T00:49:34;17.70;;;15.97;;
13816;SDS011;6979;52.116;5.286;2024-03-06T00:52:02;16.83;;;15.27;;
13816;SDS011;6979;52.116;5.286;2024-03-06T00:54:30;16.27;;;14.70;;
13816;SDS011;6979;52.116;5.286;2024-03-06T00:56:57;16.57;;;15.07;;
13816;SDS011;6979;52.116;5.286;2024-03-06T00:59:25;18.60;;;16.97;;
13816;SDS011;6979;52.116;5.286;2024-03-06T01:01:53;17.43;;;15.73;;
13816;SDS011;6979;52.116;5.286;2024-03-06T01:04:21;16.07;;;14.57;;
13816;SDS011;6979;52.116;5.286;2024-03-06T01:06:49;16.87;;;15.27;;
13816;SDS011;6979;52.116;5.286;2024-03-06T01:09:18;16.13;;;14.63;;
13816;SDS011;6979;52.116;5.286;2024-03-06T01:11:48;18.00;;;16.30;;
13816;SDS011;6979;52.116;5.286;2024-03-06T01:14:16;17.17;;;15.70;;
13816;SDS011;6979;52.116;5.286;2024-03-06T01:16:46;17.03;;;15.43;;
13816;SDS011;6979;52.116;5.286;2024-03-06T01:19:13;16.70;;;15.20;;
13816;SDS011;6979;52.116;5.286;2024-03-06T01:21:40;16.40;;;14.87;;
13816;SDS011;6979;52.116;5.286;2024-03-06T01:24:10;17.17;;;15.57;;
13816;SDS011;6979;52.116;5.286;2024-03-06T01:26:38;16.63;;;14.97;;
13816;SDS011;6979;52.116;5.286;2024-03-06T01:29:06;17.27;;;15.40;;
13816;SDS011;6979;52.116;5.286;2024-03-06T01:31:33;18.67;;;16.87;;
13816;SDS011;6979;52.116;5.286;2024-03-06T01:34:00;16.07;;;14.47;;
13816;SDS011;6979;52.116;5.286;2024-03-06T01:36:27;15.77;;;14.37;;
13816;SDS011;6979;52.116;5.286;2024-03-06T01:38:54;16.27;;;14.57;;
13816;SDS011;6979;52.116;5.286;2024-03-06T01:41:20;17.63;;;16.00;;
13816;SDS011;6979;52.116;5.286;2024-03-06T01:43:49;16.93;;;15.23;;
13816;SDS011;6979;52.116;5.286;2024-03-06T01:46:16;18.70;;;17.00;;
13816;SDS011;6979;52.116;5.286;2024-03-06T01:48:42;17.40;;;15.67;;
13816;SDS011;6979;52.116;5.286;2024-03-06T01:51:09;18.00;;;16.10;;
13816;SDS011;6979;52.116;5.286;2024-03-06T01:53:36;17.63;;;15.93;;
13816;SDS011;6979;52.116;5.286;2024-03-06T01:56:06;17.93;;;16.13;;
13816;SDS011;6979;52.116;5.286;2024-03-06T01:58:36;19.23;;;16.73;;
13816;SDS011;6979;52.116;5.286;2024-03-06T02:01:07;20.27;;;18.37;;
13816;SDS011;6979;52.116;5.286;2024-03-06T02:03:34;20.13;;;18.23;;
13816;SDS011;6979;52.116;5.286;2024-03-06T02:06:01;20.40;;;18.40;;
13816;SDS011;6979;52.116;5.286;2024-03-06T02:08:29;18.97;;;17.07;;
13816;SDS011;6979;52.116;5.286;2024-03-06T02:10:57;21.10;;;19.13;;
13816;SDS011;6979;52.116;5.286;2024-03-06T02:13:25;24.13;;;21.73;;
13816;SDS011;6979;52.116;5.286;2024-03-06T02:15:52;23.30;;;21.20;;
13816;SDS011;6979;52.116;5.286;2024-03-06T02:18:21;24.23;;;21.83;;
13816;SDS011;6979;52.116;5.286;2024-03-06T02:20:52;22.50;;;20.37;;
13816;SDS011;6979;52.116;5.286;2024-03-06T02:23:19;22.30;;;19.97;;
13816;SDS011;6979;52.116;5.286;2024-03-06T02:25:47;20.67;;;18.73;;
13816;SDS011;6979;52.116;5.286;2024-03-06T02:28:15;21.80;;;19.17;;
13816;SDS011;6979;52.116;5.286;2024-03-06T02:30:43;24.90;;;20.50;;
13816;SDS011;6979;52.116;5.286;2024-03-06T02:33:10;20.80;;;18.60;;
13816;SDS011;6979;52.116;5.286;2024-03-06T02:35:39;23.30;;;21.00;;
13816;SDS011;6979;52.116;5.286;2024-03-06T02:38:07;20.83;;;18.63;;
13816;SDS011;6979;52.116;5.286;2024-03-06T02:40:34;21.73;;;19.60;;
13816;SDS011;6979;52.116;5.286;2024-03-06T02:43:01;19.50;;;17.67;;
13816;SDS011;6979;52.116;5.286;2024-03-06T02:45:29;21.00;;;19.00;;
13816;SDS011;6979;52.116;5.286;2024-03-06T02:47:56;23.83;;;21.57;;
13816;SDS011;6979;52.116;5.286;2024-03-06T02:50:23;23.10;;;20.40;;
13816;SDS011;6979;52.116;5.286;2024-03-06T02:52:50;22.03;;;19.83;;
13816;SDS011;6979;52.116;5.286;2024-03-06T02:55:21;21.77;;;19.73;;
13816;SDS011;6979;52.116;5.286;2024-03-06T02:57:48;21.83;;;19.53;;
13816;SDS011;6979;52.116;5.286;2024-03-06T03:00:16;22.00;;;19.80;;
13816;SDS011;6979;52.116;5.286;2024-03-06T03:02:43;22.43;;;19.93;;
13816;SDS011;6979;52.116;5.286;2024-03-06T03:05:09;21.00;;;18.93;;
13816;SDS011;6979;52.116;5.286;2024-03-06T03:07:36;21.00;;;18.73;;
13816;SDS011;6979;52.116;5.286;2024-03-06T03:10:04;21.70;;;19.60;;
13816;SDS011;6979;52.116;5.286;2024-03-06T03:12:32;20.27;;;18.33;;
13816;SDS011;6979;52.116;5.286;2024-03-06T03:15:00;21.43;;;19.30;;
13816;SDS011;6979;52.116;5.286;2024-03-06T03:17:27;20.83;;;18.73;;
13816;SDS011;6979;52.116;5.286;2024-03-06T03:19:54;21.23;;;19.13;;
13816;SDS011;6979;52.116;5.286;2024-03-06T03:22:20;21.20;;;19.10;;
13816;SDS011;6979;52.116;5.286;2024-03-06T03:24:47;23.60;;;21.40;;
13816;SDS011;6979;52.116;5.286;2024-03-06T03:27:14;22.63;;;20.47;;
13816;SDS011;6979;52.116;5.286;2024-03-06T03:29:42;22.07;;;19.83;;
13816;SDS011;6979;52.116;5.286;2024-03-06T03:32:10;22.10;;;20.00;;
13816;SDS011;6979;52.116;5.286;2024-03-06T03:34:36;22.23;;;19.83;;
13816;SDS011;6979;52.116;5.286;2024-03-06T03:37:04;22.30;;;19.90;;
13816;SDS011;6979;52.116;5.286;2024-03-06T03:39:43;22.90;;;20.60;;
13816;SDS011;6979;52.116;5.286;2024-03-06T03:42:10;23.47;;;21.10;;
13816;SDS011;6979;52.116;5.286;2024-03-06T03:44:37;22.17;;;19.97;;
13816;SDS011;6979;52.116;5.286;2024-03-06T03:47:06;21.33;;;19.17;;
13816;SDS011;6979;52.116;5.286;2024-03-06T03:49:33;25.47;;;22.97;;
13816;SDS011;6979;52.116;5.286;2024-03-06T03:52:00;24.13;;;21.67;;
13816;SDS011;6979;52.116;5.286;2024-03-06T03:54:28;24.70;;;21.00;;
13816;SDS011;6979;52.116;5.286;2024-03-06T03:56:55;25.87;;;23.37;;
13816;SDS011;6979;52.116;5.286;2024-03-06T03:59:24;23.73;;;21.40;;
13816;SDS011;6979;52.116;5.286;2024-03-06T04:01:53;23.10;;;20.70;;
13816;SDS011;6979;52.116;5.286;2024-03-06T04:04:23;23.77;;;21.47;;
13816;SDS011;6979;52.116;5.286;2024-03-06T04:06:50;22.57;;;20.43;;
13816;SDS011;6979;52.116;5.286;2024-03-06T04:09:17;25.90;;;23.20;;
13816;SDS011;6979;52.116;5.286;2024-03-06T04:11:44;24.53;;;22.03;;
13816;SDS011;6979;52.116;5.286;2024-03-06T04:14:11;26.17;;;23.73;;
13816;SDS011;6979;52.116;5.286;2024-03-06T04:16:38;25.90;;;23.27;;
13816;SDS011;6979;52.116;5.286;2024-03-06T04:19:04;23.90;;;21.53;;
13816;SDS011;6979;52.116;5.286;2024-03-06T04:21:33;24.73;;;22.27;;
13816;SDS011;6979;52.116;5.286;2024-03-06T04:23:59;24.20;;;21.83;;
13816;SDS011;6979;52.116;5.286;2024-03-06T04:26:26;22.87;;;20.53;;
13816;SDS011;6979;52.116;5.286;2024-03-06T04:28:53;24.40;;;21.97;;
13816;SDS011;6979;52.116;5.286;2024-03-06T04:31:20;23.60;;;21.30;;
13816;SDS011;6979;52.116;5.286;2024-03-06T04:33:47;23.67;;;21.37;;
13816;SDS011;6979;52.116;5.286;2024-03-06T04:36:14;23.67;;;21.43;;
13816;SDS011;6979;52.116;5.286;2024-03-06T04:38:43;24.23;;;21.83;;
13816;SDS011;6979;52.116;5.286;2024-03-06T04:41:10;22.83;;;20.63;;
13816;SDS011;6979;52.116;5.286;2024-03-06T04:43:37;23.10;;;20.90;;
13816;SDS011;6979;52.116;5.286;2024-03-06T04:46:04;23.30;;;21.07;;
13816;SDS011;6979;52.116;5.286;2024-03-06T04:48:30;24.90;;;22.57;;
13816;SDS011;6979;52.116;5.286;2024-03-06T04:50:57;23.93;;;21.40;;
13816;SDS011;6979;52.116;5.286;2024-03-06T04:53:24;24.37;;;21.87;;
13816;SDS011;6979;52.116;5.286;2024-03-06T04:55:52;25.07;;;22.47;;
13816;SDS011;6979;52.116;5.286;2024-03-06T04:58:19;25.90;;;23.40;;
13816;SDS011;6979;52.116;5.286;2024-03-06T05:00:46;24.03;;;21.70;;
13816;SDS011;6979;52.116;5.286;2024-03-06T05:03:13;23.50;;;21.13;;
13816;SDS011;6979;52.116;5.286;2024-03-06T05:05:41;23.43;;;21.03;;
13816;SDS011;6979;52.116;5.286;2024-03-06T05:08:14;23.97;;;21.57;;
13816;SDS011;6979;52.116;5.286;2024-03-06T05:10:41;22.30;;;20.10;;
13816;SDS011;6979;52.116;5.286;2024-03-06T05:13:09;21.97;;;19.77;;
13816;SDS011;6979;52.116;5.286;2024-03-06T05:15:36;23.93;;;21.57;;
13816;SDS011;6979;52.116;5.286;2024-03-06T05:18:04;24.10;;;21.80;;
13816;SDS011;6979;52.116;5.286;2024-03-06T05:20:31;25.13;;;22.63;;
13816;SDS011;6979;52.116;5.286;2024-03-06T05:22:58;23.30;;;21.00;;
13816;SDS011;6979;52.116;5.286;2024-03-06T05:25:25;24.30;;;21.97;;
13816;SDS011;6979;52.116;5.286;2024-03-06T05:27:52;24.47;;;21.90;;
13816;SDS011;6979;52.116;5.286;2024-03-06T05:30:20;23.53;;;21.07;;
13816;SDS011;6979;52.116;5.286;2024-03-06T05:32:47;23.90;;;21.43;;
13816;SDS011;6979;52.116;5.286;2024-03-06T05:35:14;26.20;;;23.80;;
13816;SDS011;6979;52.116;5.286;2024-03-06T05:37:43;24.10;;;21.77;;
13816;SDS011;6979;52.116;5.286;2024-03-06T05:40:10;23.77;;;21.43;;
13816;SDS011;6979;52.116;5.286;2024-03-06T05:42:38;25.87;;;23.37;;
13816;SDS011;6979;52.116;5.286;2024-03-06T05:45:05;25.10;;;22.60;;
13816;SDS011;6979;52.116;5.286;2024-03-06T05:47:37;23.10;;;20.80;;
13816;SDS011;6979;52.116;5.286;2024-03-06T05:50:13;25.07;;;22.37;;
13816;SDS011;6979;52.116;5.286;2024-03-06T05:52:43;23.60;;;21.17;;
13816;SDS011;6979;52.116;5.286;2024-03-06T05:55:10;23.90;;;21.43;;
13816;SDS011;6979;52.116;5.286;2024-03-06T05:57:37;25.53;;;23.17;;
13816;SDS011;6979;52.116;5.286;2024-03-06T06:00:08;27.80;;;25.37;;
13816;SDS011;6979;52.116;5.286;2024-03-06T06:02:38;28.63;;;25.80;;
13816;SDS011;6979;52.116;5.286;2024-03-06T06:05:05;23.60;;;21.20;;
13816;SDS011;6979;52.116;5.286;2024-03-06T06:07:33;27.30;;;24.70;;
13816;SDS011;6979;52.116;5.286;2024-03-06T06:10:00;28.37;;;25.47;;
13816;SDS011;6979;52.116;5.286;2024-03-06T06:12:27;27.03;;;24.43;;
13816;SDS011;6979;52.116;5.286;2024-03-06T06:14:54;28.80;;;26.07;;
13816;SDS011;6979;52.116;5.286;2024-03-06T06:17:21;27.17;;;24.47;;
13816;SDS011;6979;52.116;5.286;2024-03-06T06:19:49;25.67;;;23.07;;
13816;SDS011;6979;52.116;5.286;2024-03-06T06:22:16;27.83;;;24.47;;
13816;SDS011;6979;52.116;5.286;2024-03-06T06:24:43;26.93;;;24.23;;
13816;SDS011;6979;52.116;5.286;2024-03-06T06:27:11;26.17;;;23.50;;
13816;SDS011;6979;52.116;5.286;2024-03-06T06:29:38;25.17;;;22.83;;
13816;SDS011;6979;52.116;5.286;2024-03-06T06:32:05;27.00;;;24.40;;
13816;SDS011;6979;52.116;5.286;2024-03-06T06:34:32;24.77;;;22.60;;
13816;SDS011;6979;52.116;5.286;2024-03-06T06:37:00;22.93;;;20.53;;
13816;SDS011;6979;52.116;5.286;2024-03-06T06:39:27;23.43;;;21.53;;
13816;SDS011;6979;52.116;5.286;2024-03-06T06:41:54;24.03;;;21.50;;
13816;SDS011;6979;52.116;5.286;2024-03-06T06:44:21;22.27;;;20.27;;
13816;SDS011;6979;52.116;5.286;2024-03-06T06:46:48;23.17;;;20.97;;
13816;SDS011;6979;52.116;5.286;2024-03-06T06:49:15;23.33;;;19.40;;
13816;SDS011;6979;52.116;5.286;2024-03-06T06:51:42;20.30;;;18.37;;
13816;SDS011;6979;52.116;5.286;2024-03-06T06:54:11;21.77;;;19.63;;
13816;SDS011;6979;52.116;5.286;2024-03-06T06:56:37;20.83;;;18.77;;
13816;SDS011;6979;52.116;5.286;2024-03-06T06:59:04;21.10;;;19.13;;
13816;SDS011;6979;52.116;5.286;2024-03-06T07:01:31;20.97;;;18.90;;
13816;SDS011;6979;52.116;5.286;2024-03-06T07:03:59;19.50;;;17.63;;
13816;SDS011;6979;52.116;5.286;2024-03-06T07:06:26;19.53;;;15.87;;
13816;SDS011;6979;52.116;5.286;2024-03-06T07:08:53;27.23;;;16.37;;
13816;SDS011;6979;52.116;5.286;2024-03-06T07:11:21;23.10;;;15.57;;
13816;SDS011;6979;52.116;5.286;2024-03-06T07:13:49;17.73;;;16.03;;
13816;SDS011;6979;52.116;5.286;2024-03-06T07:16:16;21.27;;;15.03;;
13816;SDS011;6979;52.116;5.286;2024-03-06T07:18:45;16.47;;;14.87;;
13816;SDS011;6979;52.116;5.286;2024-03-06T07:21:13;32.83;;;16.23;;
13816;SDS011;6979;52.116;5.286;2024-03-06T07:23:40;20.60;;;16.20;;
13816;SDS011;6979;52.116;5.286;2024-03-06T07:26:06;47.37;;;17.27;;
13816;SDS011;6979;52.116;5.286;2024-03-06T07:28:35;18.47;;;16.10;;
13816;SDS011;6979;52.116;5.286;2024-03-06T07:31:02;20.73;;;16.33;;
13816;SDS011;6979;52.116;5.286;2024-03-06T07:33:30;27.10;;;19.73;;
13816;SDS011;6979;52.116;5.286;2024-03-06T07:35:59;20.07;;;18.37;;
13816;SDS011;6979;52.116;5.286;2024-03-06T07:38:26;18.40;;;16.60;;
13816;SDS011;6979;52.116;5.286;2024-03-06T07:40:53;23.03;;;15.80;;
13816;SDS011;6979;52.116;5.286;2024-03-06T07:43:20;17.87;;;16.17;;
13816;SDS011;6979;52.116;5.286;2024-03-06T07:45:49;17.33;;;15.70;;
13816;SDS011;6979;52.116;5.286;2024-03-06T07:48:16;21.33;;;15.73;;
13816;SDS011;6979;52.116;5.286;2024-03-06T07:50:43;17.07;;;15.50;;
13816;SDS011;6979;52.116;5.286;2024-03-06T07:53:10;17.47;;;15.93;;
13816;SDS011;6979;52.116;5.286;2024-03-06T07:55:37;16.97;;;15.47;;
13816;SDS011;6979;52.116;5.286;2024-03-06T07:58:05;18.67;;;17.03;;
13816;SDS011;6979;52.116;5.286;2024-03-06T08:00:33;20.03;;;17.97;;
13816;SDS011;6979;52.116;5.286;2024-03-06T08:03:02;21.27;;;16.93;;
13816;SDS011;6979;52.116;5.286;2024-03-06T08:05:29;19.87;;;18.03;;
13816;SDS011;6979;52.116;5.286;2024-03-06T08:07:58;23.10;;;20.70;;
13816;SDS011;6979;52.116;5.286;2024-03-06T08:10:25;21.77;;;19.53;;
13816;SDS011;6979;52.116;5.286;2024-03-06T08:12:52;22.23;;;19.93;;
13816;SDS011;6979;52.116;5.286;2024-03-06T08:15:19;21.73;;;19.53;;
13816;SDS011;6979;52.116;5.286;2024-03-06T08:17:47;21.90;;;19.57;;
13816;SDS011;6979;52.116;5.286;2024-03-06T08:20:18;32.03;;;20.53;;
13816;SDS011;6979;52.116;5.286;2024-03-06T08:22:45;22.03;;;19.73;;
13816;SDS011;6979;52.116;5.286;2024-03-06T08:25:12;23.70;;;21.07;;
13816;SDS011;6979;52.116;5.286;2024-03-06T08:27:39;24.70;;;20.80;;
13816;SDS011;6979;52.116;5.286;2024-03-06T08:30:07;22.37;;;20.07;;
13816;SDS011;6979;52.116;5.286;2024-03-06T08:32:35;24.23;;;21.83;;
13816;SDS011;6979;52.116;5.286;2024-03-06T08:35:03;23.17;;;20.97;;
13816;SDS011;6979;52.116;5.286;2024-03-06T08:37:33;24.47;;;22.17;;
13816;SDS011;6979;52.116;5.286;2024-03-06T08:40:00;23.50;;;21.20;;
13816;SDS011;6979;52.116;5.286;2024-03-06T08:42:27;24.53;;;22.07;;
13816;SDS011;6979;52.116;5.286;2024-03-06T08:44:54;25.03;;;22.40;;
13816;SDS011;6979;52.116;5.286;2024-03-06T08:47:21;26.30;;;23.73;;
13816;SDS011;6979;52.116;5.286;2024-03-06T08:49:48;27.00;;;24.50;;
13816;SDS011;6979;52.116;5.286;2024-03-06T08:52:16;27.43;;;24.70;;
13816;SDS011;6979;52.116;5.286;2024-03-06T08:54:44;26.80;;;24.30;;
13816;SDS011;6979;52.116;5.286;2024-03-06T08:57:11;26.53;;;23.97;;
13816;SDS011;6979;52.116;5.286;2024-03-06T08:59:38;25.30;;;22.83;;
13816;SDS011;6979;52.116;5.286;2024-03-06T09:02:12;24.13;;;21.87;;
13816;SDS011;6979;52.116;5.286;2024-03-06T09:04:40;26.87;;;24.00;;
13816;SDS011;6979;52.116;5.286;2024-03-06T09:07:17;25.83;;;23.40;;
13816;SDS011;6979;52.116;5.286;2024-03-06T09:09:46;27.07;;;24.60;;
13816;SDS011;6979;52.116;5.286;2024-03-06T09:12:13;28.13;;;25.43;;
13816;SDS011;6979;52.116;5.286;2024-03-06T09:14:43;26.93;;;24.53;;
13816;SDS011;6979;52.116;5.286;2024-03-06T09:17:10;26.50;;;23.90;;
13816;SDS011;6979;52.116;5.286;2024-03-06T09:19:38;28.03;;;25.33;;
13816;SDS011;6979;52.116;5.286;2024-03-06T09:22:10;31.03;;;28.23;;
13816;SDS011;6979;52.116;5.286;2024-03-06T09:24:37;27.30;;;24.90;;
13816;SDS011;6979;52.116;5.286;2024-03-06T09:27:06;28.57;;;26.07;;
13816;SDS011;6979;52.116;5.286;2024-03-06T09:29:33;29.00;;;26.33;;
13816;SDS011;6979;52.116;5.286;2024-03-06T09:31:59;29.93;;;27.23;;
13816;SDS011;6979;52.116;5.286;2024-03-06T09:34:26;27.73;;;25.03;;
13816;SDS011;6979;52.116;5.286;2024-03-06T09:36:54;29.27;;;26.53;;
13816;SDS011;6979;52.116;5.286;2024-03-06T09:39:21;28.27;;;25.63;;
13816;SDS011;6979;52.116;5.286;2024-03-06T09:41:48;28.27;;;25.77;;
13816;SDS011;6979;52.116;5.286;2024-03-06T09:44:17;26.47;;;24.17;;
13816;SDS011;6979;52.116;5.286;2024-03-06T09:46:46;26.83;;;24.43;;
13816;SDS011;6979;52.116;5.286;2024-03-06T09:49:15;27.03;;;24.63;;
13816;SDS011;6979;52.116;5.286;2024-03-06T09:51:43;26.10;;;23.80;;
13816;SDS011;6979;52.116;5.286;2024-03-06T09:54:11;26.00;;;23.70;;
13816;SDS011;6979;52.116;5.286;2024-03-06T09:56:42;24.73;;;22.53;;
13816;SDS011;6979;52.116;5.286;2024-03-06T09:59:10;24.60;;;22.57;;
13816;SDS011;6979;52.116;5.286;2024-03-06T10:01:39;24.60;;;22.57;;
13816;SDS011;6979;52.116;5.286;2024-03-06T10:04:17;23.10;;;21.13;;
13816;SDS011;6979;52.116;5.286;2024-03-06T10:06:45;22.47;;;20.60;;
13816;SDS011;6979;52.116;5.286;2024-03-06T10:09:12;23.97;;;21.90;;
13816;SDS011;6979;52.116;5.286;2024-03-06T10:11:43;22.43;;;20.67;;
13816;SDS011;6979;52.116;5.286;2024-03-06T10:14:10;22.50;;;20.70;;
13816;SDS011;6979;52.116;5.286;2024-03-06T10:16:51;21.53;;;19.67;;
13816;SDS011;6979;52.116;5.286;2024-03-06T10:19:19;21.10;;;19.50;;
13816;SDS011;6979;52.116;5.286;2024-03-06T10:21:52;26.17;;;23.97;;
13816;SDS011;6979;52.116;5.286;2024-03-06T10:24:23;20.23;;;18.77;;
13816;SDS011;6979;52.116;5.286;2024-03-06T10:26:50;18.70;;;17.27;;
13816;SDS011;6979;52.116;5.286;2024-03-06T10:29:19;20.47;;;18.77;;
13816;SDS011;6979;52.116;5.286;2024-03-06T10:31:50;18.37;;;16.87;;
13816;SDS011;6979;52.116;5.286;2024-03-06T10:34:19;17.27;;;15.87;;
13816;SDS011;6979;52.116;5.286;2024-03-06T10:36:48;16.13;;;14.93;;
13816;SDS011;6979;52.116;5.286;2024-03-06T10:39:20;15.50;;;14.30;;
13816;SDS011;6979;52.116;5.286;2024-03-06T10:41:49;16.17;;;14.90;;
13816;SDS011;6979;52.116;5.286;2024-03-06T10:44:20;14.57;;;13.47;;
13816;SDS011;6979;52.116;5.286;2024-03-06T10:46:51;15.57;;;14.43;;
13816;SDS011;6979;52.116;5.286;2024-03-06T10:49:22;13.63;;;12.53;;
13816;SDS011;6979;52.116;5.286;2024-03-06T10:51:53;13.53;;;12.53;;
13816;SDS011;6979;52.116;5.286;2024-03-06T10:54:23;13.47;;;12.47;;
13816;SDS011;6979;52.116;5.286;2024-03-06T10:56:54;12.27;;;11.37;;
13816;SDS011;6979;52.116;5.286;2024-03-06T10:59:25;13.13;;;12.10;;
13816;SDS011;6979;52.116;5.286;2024-03-06T11:01:55;13.10;;;12.13;;
13816;SDS011;6979;52.116;5.286;2024-03-06T11:04:24;14.27;;;13.07;;
13816;SDS011;6979;52.116;5.286;2024-03-06T11:06:53;13.43;;;12.43;;
13816;SDS011;6979;52.116;5.286;2024-03-06T11:09:23;11.47;;;10.57;;
13816;SDS011;6979;52.116;5.286;2024-03-06T11:11:52;11.77;;;10.87;;
13816;SDS011;6979;52.116;5.286;2024-03-06T11:14:21;11.50;;;10.50;;
13816;SDS011;6979;52.116;5.286;2024-03-06T11:16:57;11.27;;;10.27;;
13816;SDS011;6979;52.116;5.286;2024-03-06T11:19:26;9.93;;;9.23;;
13816;SDS011;6979;52.116;5.286;2024-03-06T11:21:53;10.50;;;9.70;;
13816;SDS011;6979;52.116;5.286;2024-03-06T11:24:20;10.03;;;9.33;;
13816;SDS011;6979;52.116;5.286;2024-03-06T11:26:49;11.47;;;10.53;;
13816;SDS011;6979;52.116;5.286;2024-03-06T11:29:16;12.70;;;11.60;;
13816;SDS011;6979;52.116;5.286;2024-03-06T11:32:02;14.30;;;13.13;;
13816;SDS011;6979;52.116;5.286;2024-03-06T11:34:32;12.10;;;11.13;;
13816;SDS011;6979;52.116;5.286;2024-03-06T11:37:00;13.30;;;12.27;;
13816;SDS011;6979;52.116;5.286;2024-03-06T11:39:35;13.43;;;12.33;;
13816;SDS011;6979;52.116;5.286;2024-03-06T11:42:04;14.13;;;12.93;;
13816;SDS011;6979;52.116;5.286;2024-03-06T11:44:33;14.73;;;13.53;;
13816;SDS011;6979;52.116;5.286;2024-03-06T11:47:05;14.70;;;13.50;;
13816;SDS011;6979;52.116;5.286;2024-03-06T11:49:35;15.67;;;14.47;;
13816;SDS011;6979;52.116;5.286;2024-03-06T11:52:03;15.17;;;13.97;;
13816;SDS011;6979;52.116;5.286;2024-03-06T11:54:35;14.13;;;13.13;;
13816;SDS011;6979;52.116;5.286;2024-03-06T11:57:03;13.63;;;12.53;;
13816;SDS011;6979;52.116;5.286;2024-03-06T11:59:31;13.33;;;12.40;;
13816;SDS011;6979;52.116;5.286;2024-03-06T12:02:00;12.57;;;11.63;;
13816;SDS011;6979;52.116;5.286;2024-03-06T12:04:29;13.67;;;12.67;;
13816;SDS011;6979;52.116;5.286;2024-03-06T12:06:58;13.03;;;12.13;;
13816;SDS011;6979;52.116;5.286;2024-03-06T12:09:30;11.27;;;10.47;;
13816;SDS011;6979;52.116;5.286;2024-03-06T12:11:57;11.20;;;10.30;;
13816;SDS011;6979;52.116;5.286;2024-03-06T12:14:24;10.60;;;9.80;;
13816;SDS011;6979;52.116;5.286;2024-03-06T12:16:54;9.40;;;8.73;;
13816;SDS011;6979;52.116;5.286;2024-03-06T12:19:22;9.90;;;9.20;;
13816;SDS011;6979;52.116;5.286;2024-03-06T12:21:52;9.70;;;9.00;;
13816;SDS011;6979;52.116;5.286;2024-03-06T12:24:20;10.40;;;9.63;;
13816;SDS011;6979;52.116;5.286;2024-03-06T12:26:46;9.20;;;8.40;;
13816;SDS011;6979;52.116;5.286;2024-03-06T12:29:24;9.47;;;8.70;;
13816;SDS011;6979;52.116;5.286;2024-03-06T12:31:55;9.50;;;8.80;;
13816;SDS011;6979;52.116;5.286;2024-03-06T12:34:22;8.27;;;7.63;;
13816;SDS011;6979;52.116;5.286;2024-03-06T12:36:49;6.87;;;6.37;;
13816;SDS011;6979;52.116;5.286;2024-03-06T12:39:18;7.90;;;7.37;;
13816;SDS011;6979;52.116;5.286;2024-03-06T12:41:48;7.67;;;6.63;;
13816;SDS011;6979;52.116;5.286;2024-03-06T12:44:15;7.70;;;7.10;;
13816;SDS011;6979;52.116;5.286;2024-03-06T12:46:45;8.10;;;7.50;;
13816;SDS011;6979;52.116;5.286;2024-03-06T12:49:12;8.17;;;7.63;;
13816;SDS011;6979;52.116;5.286;2024-03-06T12:51:39;7.43;;;6.83;;
13816;SDS011;6979;52.116;5.286;2024-03-06T12:54:06;7.40;;;6.90;;
13816;SDS011;6979;52.116;5.286;2024-03-06T12:56:36;6.77;;;6.00;;
13816;SDS011;6979;52.116;5.286;2024-03-06T12:59:02;6.70;;;6.20;;
13816;SDS011;6979;52.116;5.286;2024-03-06T13:01:30;5.93;;;5.53;;
13816;SDS011;6979;52.116;5.286;2024-03-06T13:03:57;6.30;;;5.70;;
13816;SDS011;6979;52.116;5.286;2024-03-06T13:06:24;7.80;;;7.13;;
13816;SDS011;6979;52.116;5.286;2024-03-06T13:08:53;6.97;;;6.47;;
13816;SDS011;6979;52.116;5.286;2024-03-06T13:11:20;7.10;;;6.60;;
13816;SDS011;6979;52.116;5.286;2024-03-06T13:13:49;7.27;;;6.67;;
13816;SDS011;6979;52.116;5.286;2024-03-06T13:16:16;8.07;;;7.43;;
13816;SDS011;6979;52.116;5.286;2024-03-06T13:18:43;8.70;;;8.00;;
13816;SDS011;6979;52.116;5.286;2024-03-06T13:21:09;7.83;;;7.13;;
13816;SDS011;6979;52.116;5.286;2024-03-06T13:23:36;6.43;;;5.93;;
13816;SDS011;6979;52.116;5.286;2024-03-06T13:26:08;7.40;;;6.70;;
13816;SDS011;6979;52.116;5.286;2024-03-06T13:28:35;8.27;;;7.53;;
13816;SDS011;6979;52.116;5.286;2024-03-06T13:31:03;7.17;;;6.57;;
13816;SDS011;6979;52.116;5.286;2024-03-06T13:33:31;6.50;;;6.10;;
13816;SDS011;6979;52.116;5.286;2024-03-06T13:35:58;6.67;;;6.07;;
13816;SDS011;6979;52.116;5.286;2024-03-06T13:38:25;6.67;;;5.70;;
13816;SDS011;6979;52.116;5.286;2024-03-06T13:40:53;6.37;;;5.97;;
13816;SDS011;6979;52.116;5.286;2024-03-06T13:43:20;6.53;;;6.03;;
13816;SDS011;6979;52.116;5.286;2024-03-06T13:45:49;6.00;;;5.60;;
13816;SDS011;6979;52.116;5.286;2024-03-06T13:48:21;6.07;;;5.57;;
13816;SDS011;6979;52.116;5.286;2024-03-06T13:50:48;6.23;;;5.73;;
13816;SDS011;6979;52.116;5.286;2024-03-06T13:53:18;6.73;;;6.30;;
13816;SDS011;6979;52.116;5.286;2024-03-06T13:55:45;6.53;;;6.03;;
13816;SDS011;6979;52.116;5.286;2024-03-06T13:58:12;7.30;;;6.70;;
13816;SDS011;6979;52.116;5.286;2024-03-06T14:00:39;8.00;;;7.30;;
13816;SDS011;6979;52.116;5.286;2024-03-06T14:03:10;7.87;;;7.20;;
13816;SDS011;6979;52.116;5.286;2024-03-06T14:05:39;6.97;;;6.37;;
13816;SDS011;6979;52.116;5.286;2024-03-06T14:08:06;6.53;;;5.97;;
13816;SDS011;6979;52.116;5.286;2024-03-06T14:10:37;7.50;;;6.90;;
13816;SDS011;6979;52.116;5.286;2024-03-06T14:13:07;8.03;;;7.43;;
13816;SDS011;6979;52.116;5.286;2024-03-06T14:15:34;7.37;;;6.87;;
13816;SDS011;6979;52.116;5.286;2024-03-06T14:18:01;8.33;;;7.63;;
13816;SDS011;6979;52.116;5.286;2024-03-06T14:20:29;7.67;;;7.07;;
13816;SDS011;6979;52.116;5.286;2024-03-06T14:22:57;8.20;;;7.60;;
13816;SDS011;6979;52.116;5.286;2024-03-06T14:25:24;8.17;;;7.37;;
13816;SDS011;6979;52.116;5.286;2024-03-06T14:27:51;7.10;;;6.47;;
13816;SDS011;6979;52.116;5.286;2024-03-06T14:30:18;7.37;;;6.67;;
13816;SDS011;6979;52.116;5.286;2024-03-06T14:32:46;6.30;;;5.80;;
13816;SDS011;6979;52.116;5.286;2024-03-06T14:35:13;6.67;;;6.17;;
13816;SDS011;6979;52.116;5.286;2024-03-06T14:37:40;6.43;;;5.83;;
13816;SDS011;6979;52.116;5.286;2024-03-06T14:40:09;6.83;;;6.23;;
13816;SDS011;6979;52.116;5.286;2024-03-06T14:42:37;7.47;;;6.73;;